sensor_id;sensor_type;location;lat;lon;timestamp;P1;durP1;ratioP1;P2;durP2;ratioP2
31347;SDS011;21711;49.708;18.568;2024-03-08T00:00:12;44.00;;;16.33;;
31347;SDS011;21711;49.708;18.568;2024-03-08T00:02:43;46.10;;;19.17;;
31347;SDS011;21711;49.708;18.568;2024-03-08T00:05:12;45.30;;;19.75;;
31347;SDS011;21711;49.708;18.568;2024-03-08T00:07:41;42.78;;;18.90;;
31347;SDS011;21711;49.708;18.568;2024-03-08T00:10:10;45.80;;;18.30;;
31347;SDS011;21711;49.708;18.568;2024-03-08T00:12:42;46.92;;;19.05;;
31347;SDS011;21711;49.708;18.568;2024-03-08T00:15:14;43.88;;;18.83;;
31347;SDS011;21711;49.708;18.568;2024-03-08T00:17:45;49.22;;;19.15;;
31347;SDS011;21711;49.708;18.568;2024-03-08T00:20:14;40.42;;;18.65;;
31347;SDS011;21711;49.708;18.568;2024-03-08T00:22:45;52.92;;;20.40;;
31347;SDS011;21711;49.708;18.568;2024-03-08T00:25:13;46.53;;;19.13;;
31347;SDS011;21711;49.708;18.568;2024-03-08T00:27:41;41.92;;;18.05;;
31347;SDS011;21711;49.708;18.568;2024-03-08T00:30:09;48.63;;;18.80;;
31347;SDS011;21711;49.708;18.568;2024-03-08T00:32:39;39.78;;;17.67;;
31347;SDS011;21711;49.708;18.568;2024-03-08T00:35:07;40.95;;;19.30;;
31347;SDS011;21711;49.708;18.568;2024-03-08T00:37:35;46.13;;;19.15;;
31347;SDS011;21711;49.708;18.568;2024-03-08T00:40:03;42.50;;;18.33;;
31347;SDS011;21711;49.708;18.568;2024-03-08T00:42:33;38.42;;;17.42;;
31347;SDS011;21711;49.708;18.568;2024-03-08T00:45:01;52.47;;;19.33;;
31347;SDS011;21711;49.708;18.568;2024-03-08T00:47:29;36.85;;;16.65;;
31347;SDS011;21711;49.708;18.568;2024-03-08T00:49:57;46.88;;;19.60;;
31347;SDS011;21711;49.708;18.568;2024-03-08T00:52:24;43.47;;;19.63;;
31347;SDS011;21711;49.708;18.568;2024-03-08T00:54:52;38.30;;;16.80;;
31347;SDS011;21711;49.708;18.568;2024-03-08T00:57:19;46.92;;;18.15;;
31347;SDS011;21711;49.708;18.568;2024-03-08T00:59:47;41.13;;;17.67;;
31347;SDS011;21711;49.708;18.568;2024-03-08T01:02:15;38.50;;;16.50;;
31347;SDS011;21711;49.708;18.568;2024-03-08T01:04:45;40.55;;;18.38;;
31347;SDS011;21711;49.708;18.568;2024-03-08T01:07:13;45.90;;;19.08;;
31347;SDS011;21711;49.708;18.568;2024-03-08T01:09:41;39.33;;;17.88;;
31347;SDS011;21711;49.708;18.568;2024-03-08T01:12:09;43.25;;;18.95;;
31347;SDS011;21711;49.708;18.568;2024-03-08T01:14:37;46.20;;;18.60;;
31347;SDS011;21711;49.708;18.568;2024-03-08T01:17:05;41.13;;;17.77;;
31347;SDS011;21711;49.708;18.568;2024-03-08T01:19:32;43.58;;;18.75;;
31347;SDS011;21711;49.708;18.568;2024-03-08T01:21:59;44.05;;;18.67;;
31347;SDS011;21711;49.708;18.568;2024-03-08T01:24:28;45.13;;;19.42;;
31347;SDS011;21711;49.708;18.568;2024-03-08T01:26:55;46.60;;;18.40;;
31347;SDS011;21711;49.708;18.568;2024-03-08T01:29:23;49.67;;;19.35;;
31347;SDS011;21711;49.708;18.568;2024-03-08T01:31:50;43.97;;;18.25;;
31347;SDS011;21711;49.708;18.568;2024-03-08T01:34:19;44.20;;;18.10;;
31347;SDS011;21711;49.708;18.568;2024-03-08T01:36:47;49.60;;;22.30;;
31347;SDS011;21711;49.708;18.568;2024-03-08T01:39:15;41.72;;;18.67;;
31347;SDS011;21711;49.708;18.568;2024-03-08T01:41:43;49.97;;;19.00;;
31347;SDS011;21711;49.708;18.568;2024-03-08T01:44:11;40.28;;;17.88;;
31347;SDS011;21711;49.708;18.568;2024-03-08T01:46:42;43.88;;;18.83;;
31347;SDS011;21711;49.708;18.568;2024-03-08T01:51:41;46.00;;;16.83;;
31347;SDS011;21711;49.708;18.568;2024-03-08T01:54:08;49.33;;;17.52;;
31347;SDS011;21711;49.708;18.568;2024-03-08T01:56:37;39.63;;;18.20;;
31347;SDS011;21711;49.708;18.568;2024-03-08T01:59:06;47.78;;;19.27;;
31347;SDS011;21711;49.708;18.568;2024-03-08T02:01:34;48.92;;;20.75;;
31347;SDS011;21711;49.708;18.568;2024-03-08T02:04:01;59.65;;;19.02;;
31347;SDS011;21711;49.708;18.568;2024-03-08T02:06:29;41.17;;;17.77;;
31347;SDS011;21711;49.708;18.568;2024-03-08T02:08:56;40.42;;;18.27;;
31347;SDS011;21711;49.708;18.568;2024-03-08T02:11:24;55.53;;;19.50;;
31347;SDS011;21711;49.708;18.568;2024-03-08T02:13:51;42.80;;;18.60;;
31347;SDS011;21711;49.708;18.568;2024-03-08T02:16:22;41.47;;;17.30;;
31347;SDS011;21711;49.708;18.568;2024-03-08T02:18:49;45.72;;;19.58;;
31347;SDS011;21711;49.708;18.568;2024-03-08T02:21:17;49.70;;;17.88;;
31347;SDS011;21711;49.708;18.568;2024-03-08T02:23:45;44.50;;;18.92;;
31347;SDS011;21711;49.708;18.568;2024-03-08T02:26:13;47.58;;;18.20;;
31347;SDS011;21711;49.708;18.568;2024-03-08T02:28:41;42.78;;;18.58;;
31347;SDS011;21711;49.708;18.568;2024-03-08T02:31:10;44.63;;;18.80;;
31347;SDS011;21711;49.708;18.568;2024-03-08T02:33:38;42.45;;;18.15;;
31347;SDS011;21711;49.708;18.568;2024-03-08T02:36:06;48.13;;;19.15;;
31347;SDS011;21711;49.708;18.568;2024-03-08T02:38:33;41.35;;;17.67;;
31347;SDS011;21711;49.708;18.568;2024-03-08T02:41:01;45.15;;;18.17;;
31347;SDS011;21711;49.708;18.568;2024-03-08T02:43:30;49.67;;;19.92;;
31347;SDS011;21711;49.708;18.568;2024-03-08T02:45:57;42.17;;;18.13;;
31347;SDS011;21711;49.708;18.568;2024-03-08T02:48:26;42.55;;;18.10;;
31347;SDS011;21711;49.708;18.568;2024-03-08T02:50:53;53.40;;;20.92;;
31347;SDS011;21711;49.708;18.568;2024-03-08T02:53:21;39.50;;;16.67;;
31347;SDS011;21711;49.708;18.568;2024-03-08T02:55:49;45.13;;;17.63;;
31347;SDS011;21711;49.708;18.568;2024-03-08T02:58:16;47.90;;;18.42;;
31347;SDS011;21711;49.708;18.568;2024-03-08T03:00:45;42.67;;;17.83;;
31347;SDS011;21711;49.708;18.568;2024-03-08T03:03:12;39.87;;;18.73;;
31347;SDS011;21711;49.708;18.568;2024-03-08T03:05:39;44.13;;;19.33;;
31347;SDS011;21711;49.708;18.568;2024-03-08T03:08:14;53.13;;;19.07;;
31347;SDS011;21711;49.708;18.568;2024-03-08T03:10:44;48.40;;;18.27;;
31347;SDS011;21711;49.708;18.568;2024-03-08T03:13:12;40.53;;;17.83;;
31347;SDS011;21711;49.708;18.568;2024-03-08T03:15:41;47.80;;;19.10;;
31347;SDS011;21711;49.708;18.568;2024-03-08T03:18:08;50.63;;;19.93;;
31347;SDS011;21711;49.708;18.568;2024-03-08T03:20:36;52.77;;;19.70;;
31347;SDS011;21711;49.708;18.568;2024-03-08T03:23:11;51.33;;;18.60;;
31347;SDS011;21711;49.708;18.568;2024-03-08T03:25:42;44.60;;;18.17;;
31347;SDS011;21711;49.708;18.568;2024-03-08T03:28:10;50.23;;;19.93;;
31347;SDS011;21711;49.708;18.568;2024-03-08T03:30:41;54.43;;;20.33;;
31347;SDS011;21711;49.708;18.568;2024-03-08T03:33:09;48.20;;;18.57;;
31347;SDS011;21711;49.708;18.568;2024-03-08T03:35:39;46.90;;;18.50;;
31347;SDS011;21711;49.708;18.568;2024-03-08T03:38:08;46.80;;;19.10;;
31347;SDS011;21711;49.708;18.568;2024-03-08T03:40:38;58.13;;;21.83;;
31347;SDS011;21711;49.708;18.568;2024-03-08T03:43:07;52.25;;;19.60;;
31347;SDS011;21711;49.708;18.568;2024-03-08T03:45:36;47.60;;;18.77;;
31347;SDS011;21711;49.708;18.568;2024-03-08T03:48:05;51.77;;;20.23;;
31347;SDS011;21711;49.708;18.568;2024-03-08T03:50:37;49.73;;;19.43;;
31347;SDS011;21711;49.708;18.568;2024-03-08T03:53:06;49.33;;;19.30;;
31347;SDS011;21711;49.708;18.568;2024-03-08T03:55:36;54.37;;;20.50;;
31347;SDS011;21711;49.708;18.568;2024-03-08T04:00:37;50.20;;;19.90;;
31347;SDS011;21711;49.708;18.568;2024-03-08T04:03:06;51.83;;;20.43;;
31347;SDS011;21711;49.708;18.568;2024-03-08T04:05:34;54.00;;;21.07;;
31347;SDS011;21711;49.708;18.568;2024-03-08T04:08:01;50.03;;;19.57;;
31347;SDS011;21711;49.708;18.568;2024-03-08T04:10:29;59.67;;;20.87;;
31347;SDS011;21711;49.708;18.568;2024-03-08T04:12:58;51.13;;;20.17;;
31347;SDS011;21711;49.708;18.568;2024-03-08T04:15:25;53.70;;;20.60;;
31347;SDS011;21711;49.708;18.568;2024-03-08T04:17:52;55.40;;;20.30;;
31347;SDS011;21711;49.708;18.568;2024-03-08T04:20:20;58.00;;;19.77;;
31347;SDS011;21711;49.708;18.568;2024-03-08T04:22:48;51.03;;;18.20;;
31347;SDS011;21711;49.708;18.568;2024-03-08T04:25:16;54.10;;;20.37;;
31347;SDS011;21711;49.708;18.568;2024-03-08T04:27:44;50.23;;;20.77;;
31347;SDS011;21711;49.708;18.568;2024-03-08T04:30:11;60.73;;;21.30;;
31347;SDS011;21711;49.708;18.568;2024-03-08T04:32:39;53.47;;;20.87;;
31347;SDS011;21711;49.708;18.568;2024-03-08T04:35:08;63.40;;;22.53;;
31347;SDS011;21711;49.708;18.568;2024-03-08T04:37:35;61.37;;;22.93;;
31347;SDS011;21711;49.708;18.568;2024-03-08T04:40:03;62.67;;;24.87;;
31347;SDS011;21711;49.708;18.568;2024-03-08T04:42:31;66.03;;;24.50;;
31347;SDS011;21711;49.708;18.568;2024-03-08T04:45:00;62.27;;;23.17;;
31347;SDS011;21711;49.708;18.568;2024-03-08T04:47:27;57.07;;;23.37;;
31347;SDS011;21711;49.708;18.568;2024-03-08T04:49:55;63.43;;;22.83;;
31347;SDS011;21711;49.708;18.568;2024-03-08T04:52:23;60.27;;;22.23;;
31347;SDS011;21711;49.708;18.568;2024-03-08T04:54:51;63.90;;;24.97;;
31347;SDS011;21711;49.708;18.568;2024-03-08T04:57:19;62.77;;;24.07;;
31347;SDS011;21711;49.708;18.568;2024-03-08T04:59:46;62.30;;;23.80;;
31347;SDS011;21711;49.708;18.568;2024-03-08T05:02:14;62.57;;;24.37;;
31347;SDS011;21711;49.708;18.568;2024-03-08T05:04:41;65.40;;;24.50;;
31347;SDS011;21711;49.708;18.568;2024-03-08T05:07:09;61.60;;;22.70;;
31347;SDS011;21711;49.708;18.568;2024-03-08T05:09:37;61.83;;;24.27;;
31347;SDS011;21711;49.708;18.568;2024-03-08T05:12:05;62.30;;;23.47;;
31347;SDS011;21711;49.708;18.568;2024-03-08T05:14:32;67.33;;;24.30;;
31347;SDS011;21711;49.708;18.568;2024-03-08T05:17:01;66.73;;;25.60;;
31347;SDS011;21711;49.708;18.568;2024-03-08T05:19:29;67.60;;;23.70;;
31347;SDS011;21711;49.708;18.568;2024-03-08T05:22:01;57.70;;;23.07;;
31347;SDS011;21711;49.708;18.568;2024-03-08T05:24:29;71.80;;;23.77;;
31347;SDS011;21711;49.708;18.568;2024-03-08T05:26:57;70.60;;;26.57;;
31347;SDS011;21711;49.708;18.568;2024-03-08T05:29:27;69.13;;;26.20;;
31347;SDS011;21711;49.708;18.568;2024-03-08T05:31:56;72.73;;;27.83;;
31347;SDS011;21711;49.708;18.568;2024-03-08T05:34:24;67.40;;;25.17;;
31347;SDS011;21711;49.708;18.568;2024-03-08T05:36:55;73.10;;;26.13;;
31347;SDS011;21711;49.708;18.568;2024-03-08T05:39:22;69.27;;;28.30;;
31347;SDS011;21711;49.708;18.568;2024-03-08T05:41:50;71.63;;;27.13;;
31347;SDS011;21711;49.708;18.568;2024-03-08T05:44:18;78.80;;;27.40;;
31347;SDS011;21711;49.708;18.568;2024-03-08T05:46:45;83.10;;;27.73;;
31347;SDS011;21711;49.708;18.568;2024-03-08T05:49:14;73.80;;;27.60;;
31347;SDS011;21711;49.708;18.568;2024-03-08T05:51:41;81.43;;;29.47;;
31347;SDS011;21711;49.708;18.568;2024-03-08T05:54:10;89.90;;;29.37;;
31347;SDS011;21711;49.708;18.568;2024-03-08T05:56:42;77.60;;;27.23;;
31347;SDS011;21711;49.708;18.568;2024-03-08T05:59:11;65.70;;;25.50;;
31347;SDS011;21711;49.708;18.568;2024-03-08T06:01:40;84.53;;;28.57;;
31347;SDS011;21711;49.708;18.568;2024-03-08T06:04:09;77.53;;;27.47;;
31347;SDS011;21711;49.708;18.568;2024-03-08T06:06:39;76.95;;;27.25;;
31347;SDS011;21711;49.708;18.568;2024-03-08T06:09:08;69.37;;;26.47;;
31347;SDS011;21711;49.708;18.568;2024-03-08T06:11:39;64.65;;;24.83;;
31347;SDS011;21711;49.708;18.568;2024-03-08T06:14:08;64.40;;;26.35;;
31347;SDS011;21711;49.708;18.568;2024-03-08T06:16:35;67.40;;;25.13;;
31347;SDS011;21711;49.708;18.568;2024-03-08T06:19:03;63.15;;;26.63;;
31347;SDS011;21711;49.708;18.568;2024-03-08T06:21:30;67.57;;;24.45;;
31347;SDS011;21711;49.708;18.568;2024-03-08T06:23:59;57.20;;;24.45;;
31347;SDS011;21711;49.708;18.568;2024-03-08T06:26:27;60.97;;;26.38;;
31347;SDS011;21711;49.708;18.568;2024-03-08T06:28:58;56.72;;;21.85;;
31347;SDS011;21711;49.708;18.568;2024-03-08T06:31:26;47.92;;;21.60;;
31347;SDS011;21711;49.708;18.568;2024-03-08T06:33:53;46.05;;;19.73;;
31347;SDS011;21711;49.708;18.568;2024-03-08T06:36:24;45.97;;;20.33;;
31347;SDS011;21711;49.708;18.568;2024-03-08T06:38:52;43.30;;;20.67;;
31347;SDS011;21711;49.708;18.568;2024-03-08T06:41:20;45.78;;;19.75;;
31347;SDS011;21711;49.708;18.568;2024-03-08T06:43:47;40.60;;;18.38;;
31347;SDS011;21711;49.708;18.568;2024-03-08T06:48:47;36.70;;;18.50;;
31347;SDS011;21711;49.708;18.568;2024-03-08T06:51:16;36.47;;;18.20;;
31347;SDS011;21711;49.708;18.568;2024-03-08T06:53:44;43.25;;;18.90;;
31347;SDS011;21711;49.708;18.568;2024-03-08T06:56:12;40.13;;;18.30;;
31347;SDS011;21711;49.708;18.568;2024-03-08T06:58:39;38.40;;;17.63;;
31347;SDS011;21711;49.708;18.568;2024-03-08T07:01:07;45.88;;;18.13;;
31347;SDS011;21711;49.708;18.568;2024-03-08T07:03:41;36.97;;;18.80;;
31347;SDS011;21711;49.708;18.568;2024-03-08T07:06:12;37.60;;;18.65;;
31347;SDS011;21711;49.708;18.568;2024-03-08T07:08:40;38.25;;;18.80;;
31347;SDS011;21711;49.708;18.568;2024-03-08T07:11:09;37.47;;;18.02;;
31347;SDS011;21711;49.708;18.568;2024-03-08T07:13:37;43.83;;;18.60;;
31347;SDS011;21711;49.708;18.568;2024-03-08T07:16:05;33.10;;;17.27;;
31347;SDS011;21711;49.708;18.568;2024-03-08T07:18:35;34.50;;;17.58;;
31347;SDS011;21711;49.708;18.568;2024-03-08T07:21:06;32.28;;;16.65;;
31347;SDS011;21711;49.708;18.568;2024-03-08T07:23:33;34.40;;;17.70;;
31347;SDS011;21711;49.708;18.568;2024-03-08T07:26:20;35.17;;;17.75;;
31347;SDS011;21711;49.708;18.568;2024-03-08T07:28:47;35.50;;;17.75;;
31347;SDS011;21711;49.708;18.568;2024-03-08T07:31:14;36.83;;;17.75;;
31347;SDS011;21711;49.708;18.568;2024-03-08T07:33:58;37.58;;;17.60;;
31347;SDS011;21711;49.708;18.568;2024-03-08T07:36:25;31.13;;;17.60;;
31347;SDS011;21711;49.708;18.568;2024-03-08T07:38:52;36.47;;;19.00;;
31347;SDS011;21711;49.708;18.568;2024-03-08T07:41:20;31.92;;;16.40;;
31347;SDS011;21711;49.708;18.568;2024-03-08T07:43:48;30.80;;;16.85;;
31347;SDS011;21711;49.708;18.568;2024-03-08T07:46:16;33.75;;;17.17;;
31347;SDS011;21711;49.708;18.568;2024-03-08T07:48:45;32.45;;;18.10;;
31347;SDS011;21711;49.708;18.568;2024-03-08T07:51:15;32.97;;;17.65;;
31347;SDS011;21711;49.708;18.568;2024-03-08T07:53:44;37.25;;;18.73;;
31347;SDS011;21711;49.708;18.568;2024-03-08T07:56:12;32.85;;;18.13;;
31347;SDS011;21711;49.708;18.568;2024-03-08T07:58:40;34.55;;;19.52;;
31347;SDS011;21711;49.708;18.568;2024-03-08T08:01:07;33.67;;;19.65;;
31347;SDS011;21711;49.708;18.568;2024-03-08T08:03:42;37.58;;;20.58;;
31347;SDS011;21711;49.708;18.568;2024-03-08T08:06:10;36.85;;;19.27;;
31347;SDS011;21711;49.708;18.568;2024-03-08T08:08:42;36.13;;;19.08;;
31347;SDS011;21711;49.708;18.568;2024-03-08T08:11:10;35.28;;;19.33;;
31347;SDS011;21711;49.708;18.568;2024-03-08T08:13:44;32.92;;;19.45;;
31347;SDS011;21711;49.708;18.568;2024-03-08T08:16:11;38.40;;;20.15;;
31347;SDS011;21711;49.708;18.568;2024-03-08T08:18:39;36.53;;;20.25;;
31347;SDS011;21711;49.708;18.568;2024-03-08T08:21:07;36.78;;;19.02;;
31347;SDS011;21711;49.708;18.568;2024-03-08T08:23:34;33.38;;;18.27;;
31347;SDS011;21711;49.708;18.568;2024-03-08T08:26:02;40.88;;;21.83;;
31347;SDS011;21711;49.708;18.568;2024-03-08T08:28:29;45.95;;;22.05;;
31347;SDS011;21711;49.708;18.568;2024-03-08T08:30:57;35.58;;;19.88;;
31347;SDS011;21711;49.708;18.568;2024-03-08T08:33:26;35.55;;;20.38;;
31347;SDS011;21711;49.708;18.568;2024-03-08T08:35:53;37.33;;;17.50;;
31347;SDS011;21711;49.708;18.568;2024-03-08T08:38:20;31.85;;;17.27;;
31347;SDS011;21711;49.708;18.568;2024-03-08T08:40:48;36.47;;;19.60;;
31347;SDS011;21711;49.708;18.568;2024-03-08T08:43:16;33.65;;;18.08;;
31347;SDS011;21711;49.708;18.568;2024-03-08T08:45:44;34.58;;;16.85;;
31347;SDS011;21711;49.708;18.568;2024-03-08T08:48:13;29.63;;;16.38;;
31347;SDS011;21711;49.708;18.568;2024-03-08T08:50:41;30.20;;;16.17;;
31347;SDS011;21711;49.708;18.568;2024-03-08T08:53:08;27.10;;;15.45;;
31347;SDS011;21711;49.708;18.568;2024-03-08T08:55:35;28.83;;;15.25;;
31347;SDS011;21711;49.708;18.568;2024-03-08T08:58:03;30.58;;;15.90;;
31347;SDS011;21711;49.708;18.568;2024-03-08T09:00:30;26.30;;;14.82;;
31347;SDS011;21711;49.708;18.568;2024-03-08T09:02:59;33.53;;;15.77;;
31347;SDS011;21711;49.708;18.568;2024-03-08T09:05:28;31.25;;;16.95;;
31347;SDS011;21711;49.708;18.568;2024-03-08T09:07:59;29.02;;;14.75;;
31347;SDS011;21711;49.708;18.568;2024-03-08T09:10:27;34.35;;;16.75;;
31347;SDS011;21711;49.708;18.568;2024-03-08T09:12:57;32.83;;;15.67;;
31347;SDS011;21711;49.708;18.568;2024-03-08T09:15:26;28.17;;;14.90;;
31347;SDS011;21711;49.708;18.568;2024-03-08T09:17:55;28.70;;;15.93;;
31347;SDS011;21711;49.708;18.568;2024-03-08T09:20:23;30.08;;;15.65;;
31347;SDS011;21711;49.708;18.568;2024-03-08T09:22:51;32.45;;;16.65;;
31347;SDS011;21711;49.708;18.568;2024-03-08T09:25:19;31.70;;;15.73;;
31347;SDS011;21711;49.708;18.568;2024-03-08T09:27:47;29.90;;;15.10;;
31347;SDS011;21711;49.708;18.568;2024-03-08T09:30:14;28.75;;;15.50;;
31347;SDS011;21711;49.708;18.568;2024-03-08T09:32:42;29.00;;;15.88;;
31347;SDS011;21711;49.708;18.568;2024-03-08T09:35:10;26.42;;;15.48;;
31347;SDS011;21711;49.708;18.568;2024-03-08T09:37:37;30.52;;;14.63;;
31347;SDS011;21711;49.708;18.568;2024-03-08T09:40:05;27.60;;;15.35;;
31347;SDS011;21711;49.708;18.568;2024-03-08T09:42:37;28.48;;;15.82;;
31347;SDS011;21711;49.708;18.568;2024-03-08T09:45:05;27.98;;;15.30;;
31347;SDS011;21711;49.708;18.568;2024-03-08T09:47:39;27.05;;;15.15;;
31347;SDS011;21711;49.708;18.568;2024-03-08T09:50:11;36.70;;;16.17;;
31347;SDS011;21711;49.708;18.568;2024-03-08T09:52:42;36.67;;;16.48;;
31347;SDS011;21711;49.708;18.568;2024-03-08T09:55:13;36.25;;;14.77;;
31347;SDS011;21711;49.708;18.568;2024-03-08T09:57:44;30.42;;;15.50;;
31347;SDS011;21711;49.708;18.568;2024-03-08T10:00:31;30.02;;;15.32;;
31347;SDS011;21711;49.708;18.568;2024-03-08T10:03:02;30.60;;;15.38;;
31347;SDS011;21711;49.708;18.568;2024-03-08T10:05:30;24.73;;;15.75;;
31347;SDS011;21711;49.708;18.568;2024-03-08T10:07:59;29.30;;;15.55;;
31347;SDS011;21711;49.708;18.568;2024-03-08T10:10:27;26.48;;;15.40;;
31347;SDS011;21711;49.708;18.568;2024-03-08T10:12:55;30.10;;;16.42;;
31347;SDS011;21711;49.708;18.568;2024-03-08T10:15:23;27.98;;;15.60;;
31347;SDS011;21711;49.708;18.568;2024-03-08T10:17:50;27.80;;;15.55;;
31347;SDS011;21711;49.708;18.568;2024-03-08T10:20:19;41.22;;;17.20;;
31347;SDS011;21711;49.708;18.568;2024-03-08T10:22:47;33.42;;;16.65;;
31347;SDS011;21711;49.708;18.568;2024-03-08T10:25:32;37.70;;;17.35;;
31347;SDS011;21711;49.708;18.568;2024-03-08T10:28:04;38.05;;;17.05;;
31347;SDS011;21711;49.708;18.568;2024-03-08T10:30:32;27.45;;;16.30;;
31347;SDS011;21711;49.708;18.568;2024-03-08T10:33:00;27.13;;;16.63;;
31347;SDS011;21711;49.708;18.568;2024-03-08T10:35:29;24.73;;;15.65;;
31347;SDS011;21711;49.708;18.568;2024-03-08T10:37:56;27.65;;;15.82;;
31347;SDS011;21711;49.708;18.568;2024-03-08T10:40:26;23.85;;;14.77;;
31347;SDS011;21711;49.708;18.568;2024-03-08T10:42:56;26.08;;;16.38;;
31347;SDS011;21711;49.708;18.568;2024-03-08T10:45:35;27.52;;;16.98;;
31347;SDS011;21711;49.708;18.568;2024-03-08T10:48:29;26.92;;;17.65;;
31347;SDS011;21711;49.708;18.568;2024-03-08T10:51:05;26.90;;;16.27;;
31347;SDS011;21711;49.708;18.568;2024-03-08T10:53:37;28.17;;;16.35;;
31347;SDS011;21711;49.708;18.568;2024-03-08T10:56:08;30.00;;;17.27;;
31347;SDS011;21711;49.708;18.568;2024-03-08T10:58:36;28.35;;;17.05;;
31347;SDS011;21711;49.708;18.568;2024-03-08T11:01:05;28.73;;;17.15;;
31347;SDS011;21711;49.708;18.568;2024-03-08T11:03:54;27.77;;;17.45;;
31347;SDS011;21711;49.708;18.568;2024-03-08T11:06:44;28.13;;;18.80;;
31347;SDS011;21711;49.708;18.568;2024-03-08T11:09:46;30.83;;;19.38;;
31347;SDS011;21711;49.708;18.568;2024-03-08T11:14:59;28.45;;;19.55;;
31347;SDS011;21711;49.708;18.568;2024-03-08T11:19:58;32.13;;;20.67;;
31347;SDS011;21711;49.708;18.568;2024-03-08T11:25:06;28.15;;;20.48;;
31347;SDS011;21711;49.708;18.568;2024-03-08T11:27:37;29.83;;;19.88;;
31347;SDS011;21711;49.708;18.568;2024-03-08T11:30:05;27.65;;;20.20;;
31347;SDS011;21711;49.708;18.568;2024-03-08T11:32:46;30.00;;;19.88;;
31347;SDS011;21711;49.708;18.568;2024-03-08T11:35:21;30.08;;;20.17;;
31347;SDS011;21711;49.708;18.568;2024-03-08T11:37:50;28.45;;;20.05;;
31347;SDS011;21711;49.708;18.568;2024-03-08T11:40:17;25.73;;;18.70;;
31347;SDS011;21711;49.708;18.568;2024-03-08T11:42:47;30.30;;;20.58;;
31347;SDS011;21711;49.708;18.568;2024-03-08T11:45:16;32.40;;;20.40;;
31347;SDS011;21711;49.708;18.568;2024-03-08T11:47:45;28.08;;;19.98;;
31347;SDS011;21711;49.708;18.568;2024-03-08T11:50:13;32.38;;;21.60;;
31347;SDS011;21711;49.708;18.568;2024-03-08T11:52:43;29.77;;;21.02;;
31347;SDS011;21711;49.708;18.568;2024-03-08T11:55:10;25.80;;;19.85;;
31347;SDS011;21711;49.708;18.568;2024-03-08T11:57:40;28.70;;;20.35;;
31347;SDS011;21711;49.708;18.568;2024-03-08T12:00:15;28.77;;;20.23;;
31347;SDS011;21711;49.708;18.568;2024-03-08T12:03:05;28.55;;;21.13;;
31347;SDS011;21711;49.708;18.568;2024-03-08T12:05:34;29.67;;;20.48;;
31347;SDS011;21711;49.708;18.568;2024-03-08T12:08:02;30.10;;;20.83;;
31347;SDS011;21711;49.708;18.568;2024-03-08T12:10:31;30.48;;;21.15;;
31347;SDS011;21711;49.708;18.568;2024-03-08T12:12:59;28.80;;;20.33;;
31347;SDS011;21711;49.708;18.568;2024-03-08T12:15:27;28.27;;;18.90;;
31347;SDS011;21711;49.708;18.568;2024-03-08T12:17:55;28.60;;;20.42;;
31347;SDS011;21711;49.708;18.568;2024-03-08T12:20:24;26.95;;;19.77;;
31347;SDS011;21711;49.708;18.568;2024-03-08T12:22:56;28.58;;;20.00;;
31347;SDS011;21711;49.708;18.568;2024-03-08T12:25:35;26.13;;;19.83;;
31347;SDS011;21711;49.708;18.568;2024-03-08T12:28:12;28.70;;;20.63;;
31347;SDS011;21711;49.708;18.568;2024-03-08T12:30:48;30.95;;;22.52;;
31347;SDS011;21711;49.708;18.568;2024-03-08T12:33:22;28.05;;;21.08;;
31347;SDS011;21711;49.708;18.568;2024-03-08T12:35:51;27.48;;;20.70;;
31347;SDS011;21711;49.708;18.568;2024-03-08T12:38:27;28.00;;;19.55;;
31347;SDS011;21711;49.708;18.568;2024-03-08T12:40:58;27.67;;;19.67;;
31347;SDS011;21711;49.708;18.568;2024-03-08T12:43:27;30.25;;;20.08;;
31347;SDS011;21711;49.708;18.568;2024-03-08T12:45:58;28.10;;;18.95;;
31347;SDS011;21711;49.708;18.568;2024-03-08T12:48:25;30.63;;;21.05;;
31347;SDS011;21711;49.708;18.568;2024-03-08T12:50:53;31.70;;;21.42;;
31347;SDS011;21711;49.708;18.568;2024-03-08T12:53:21;30.40;;;20.58;;
31347;SDS011;21711;49.708;18.568;2024-03-08T12:55:49;30.05;;;20.80;;
31347;SDS011;21711;49.708;18.568;2024-03-08T12:58:17;29.83;;;21.08;;
31347;SDS011;21711;49.708;18.568;2024-03-08T13:00:46;29.27;;;19.98;;
31347;SDS011;21711;49.708;18.568;2024-03-08T13:03:19;33.95;;;20.75;;
31347;SDS011;21711;49.708;18.568;2024-03-08T13:05:47;35.55;;;20.85;;
31347;SDS011;21711;49.708;18.568;2024-03-08T13:08:16;28.80;;;19.92;;
31347;SDS011;21711;49.708;18.568;2024-03-08T13:10:44;30.63;;;20.05;;
31347;SDS011;21711;49.708;18.568;2024-03-08T13:13:12;29.85;;;20.48;;
31347;SDS011;21711;49.708;18.568;2024-03-08T13:15:44;34.80;;;18.70;;
31347;SDS011;21711;49.708;18.568;2024-03-08T13:18:11;33.17;;;19.63;;
31347;SDS011;21711;49.708;18.568;2024-03-08T13:20:39;32.60;;;19.92;;
31347;SDS011;21711;49.708;18.568;2024-03-08T13:23:13;31.25;;;19.75;;
31347;SDS011;21711;49.708;18.568;2024-03-08T13:25:41;27.88;;;18.27;;
31347;SDS011;21711;49.708;18.568;2024-03-08T13:28:09;30.25;;;19.05;;
31347;SDS011;21711;49.708;18.568;2024-03-08T13:30:37;31.08;;;18.60;;
31347;SDS011;21711;49.708;18.568;2024-03-08T13:33:05;29.02;;;18.27;;
31347;SDS011;21711;49.708;18.568;2024-03-08T13:35:34;28.85;;;18.17;;
31347;SDS011;21711;49.708;18.568;2024-03-08T13:38:01;31.85;;;17.83;;
31347;SDS011;21711;49.708;18.568;2024-03-08T13:40:30;31.30;;;18.02;;
31347;SDS011;21711;49.708;18.568;2024-03-08T13:42:58;32.13;;;18.42;;
31347;SDS011;21711;49.708;18.568;2024-03-08T13:45:28;30.85;;;16.60;;
31347;SDS011;21711;49.708;18.568;2024-03-08T13:47:55;31.67;;;17.75;;
31347;SDS011;21711;49.708;18.568;2024-03-08T13:50:23;32.53;;;16.80;;
31347;SDS011;21711;49.708;18.568;2024-03-08T13:52:52;32.22;;;16.30;;
31347;SDS011;21711;49.708;18.568;2024-03-08T13:55:22;31.23;;;17.15;;
31347;SDS011;21711;49.708;18.568;2024-03-08T13:57:54;28.50;;;15.85;;
31347;SDS011;21711;49.708;18.568;2024-03-08T14:00:24;33.80;;;17.70;;
31347;SDS011;21711;49.708;18.568;2024-03-08T14:02:54;30.60;;;15.95;;
31347;SDS011;21711;49.708;18.568;2024-03-08T14:05:22;32.55;;;15.57;;
31347;SDS011;21711;49.708;18.568;2024-03-08T14:07:49;33.28;;;16.15;;
31347;SDS011;21711;49.708;18.568;2024-03-08T14:10:17;33.47;;;16.63;;
31347;SDS011;21711;49.708;18.568;2024-03-08T14:12:49;32.60;;;16.65;;
31347;SDS011;21711;49.708;18.568;2024-03-08T14:15:17;30.83;;;15.77;;
31347;SDS011;21711;49.708;18.568;2024-03-08T14:17:51;32.70;;;15.73;;
31347;SDS011;21711;49.708;18.568;2024-03-08T14:20:20;31.92;;;16.45;;
31347;SDS011;21711;49.708;18.568;2024-03-08T14:22:54;33.17;;;16.63;;
31347;SDS011;21711;49.708;18.568;2024-03-08T14:25:23;30.83;;;15.20;;
31347;SDS011;21711;49.708;18.568;2024-03-08T14:27:51;30.83;;;15.30;;
31347;SDS011;21711;49.708;18.568;2024-03-08T14:30:20;34.90;;;16.05;;
31347;SDS011;21711;49.708;18.568;2024-03-08T14:33:05;32.67;;;15.38;;
31347;SDS011;21711;49.708;18.568;2024-03-08T14:35:36;33.70;;;16.50;;